Observation data for Abernathy on 07/11/2018      Previous  Date       Current Mesonet Observations  Soil Data  Daily Summary Page  Observations in Plain Language
KARS 110505Z 16006KT 24/16 A3016 RMK A01 T02380159  RH  064%=      5-min Rain = 0
KARS 110510Z 16005KT 24/16 A3016 RMK A01 T02370159  RH  064%=      5-min Rain = 0
KARS 110515Z 17005KT 24/16 A3016 RMK A01 T02370158  RH  064%=      5-min Rain = 0
KARS 110520Z 16005KT 24/16 A3016 RMK A01 T02360158  RH  065%=      5-min Rain = 0
KARS 110525Z 16005KT 23/16 A3016 RMK A01 T02330158  RH  066%=      5-min Rain = 0
KARS 110530Z 16004KT 23/16 A3016 RMK A01 T02310159  RH  067%=      5-min Rain = 0
KARS 110535Z 16004KT 23/16 A3016 RMK A01 T02290158  RH  068%=      5-min Rain = 0
KARS 110540Z 16004KT 23/16 A3016 RMK A01 T02270159  RH  069%=      5-min Rain = 0
KARS 110545Z 16004KT 23/16 A3016 RMK A01 T02250159  RH  069%=      5-min Rain = 0
KARS 110550Z 17004KT 22/16 A3016 RMK A01 T02230158  RH  070%=      5-min Rain = 0
KARS 110555Z 17004KT 22/16 A3016 RMK A01 T02230157  RH  069%=      5-min Rain = 0
KARS 110600Z 17004KT 22/16 A3016 RMK A01 T02220156  RH  070%=      5-min Rain = 0
KARS 110605Z 17005KT 22/16 A3016 RMK A01 T02210156  RH  070%=      5-min Rain = 0
KARS 110610Z 17005KT 22/16 A3016 RMK A01 T02190156  RH  071%=      5-min Rain = 0
KARS 110615Z 17005KT 22/16 A3016 RMK A01 T02190157  RH  071%=      5-min Rain = 0
KARS 110620Z 17006KT 22/16 A3016 RMK A01 T02190157  RH  071%=      5-min Rain = 0
KARS 110625Z 18005KT 22/16 A3016 RMK A01 T02200157  RH  071%=      5-min Rain = 0
KARS 110630Z 18005KT 22/16 A3016 RMK A01 T02180155  RH  071%=      5-min Rain = 0
KARS 110635Z 18005KT 22/16 A3016 RMK A01 T02150156  RH  072%=      5-min Rain = 0
KARS 110640Z 18005KT 21/16 A3016 RMK A01 T02140156  RH  073%=      5-min Rain = 0
KARS 110645Z 17006KT 21/16 A3016 RMK A01 T02140157  RH  073%=      5-min Rain = 0
KARS 110650Z 17006KT 22/16 A3016 RMK A01 T02170160  RH  073%=      5-min Rain = 0
KARS 110655Z 17005KT 22/16 A3016 RMK A01 T02190160  RH  072%=      5-min Rain = 0
KARS 110700Z 17005KT 22/16 A3016 RMK A01 T02200160  RH  072%=      5-min Rain = 0
KARS 110705Z 18005KT 22/16 A3016 RMK A01 T02190159  RH  072%=      5-min Rain = 0
KARS 110710Z 18004KT 22/16 A3016 RMK A01 T02150157  RH  073%=      5-min Rain = 0
KARS 110715Z 18005KT 21/16 A3016 RMK A01 T02130158  RH  074%=      5-min Rain = 0
KARS 110720Z 17005KT 21/16 A3016 RMK A01 T02130159  RH  075%=      5-min Rain = 0
KARS 110725Z 16005KT 22/16 A3016 RMK A01 T02180162  RH  074%=      5-min Rain = 0
KARS 110730Z 17005KT 22/16 A3016 RMK A01 T02230163  RH  072%=      5-min Rain = 0
KARS 110735Z 17006KT 23/16 A3016 RMK A01 T02270162  RH  070%=      5-min Rain = 0
KARS 110740Z 17005KT 23/16 A3016 RMK A01 T02280162  RH  070%=      5-min Rain = 0
KARS 110745Z 17005KT 23/16 A3016 RMK A01 T02280162  RH  069%=      5-min Rain = 0
KARS 110750Z 17005KT 23/16 A3016 RMK A01 T02270162  RH  070%=      5-min Rain = 0
KARS 110755Z 17005KT 23/16 A3016 RMK A01 T02250162  RH  071%=      5-min Rain = 0
KARS 110800Z 17006KT 22/16 A3016 RMK A01 T02230162  RH  072%=      5-min Rain = 0
KARS 110805Z 17006KT 22/16 A3016 RMK A01 T02220162  RH  072%=      5-min Rain = 0
KARS 110810Z 17006KT 22/16 A3016 RMK A01 T02200162  RH  073%=      5-min Rain = 0
KARS 110815Z 17005KT 22/16 A3016 RMK A01 T02180161  RH  073%=      5-min Rain = 0
KARS 110820Z 18004KT 22/16 A3016 RMK A01 T02160161  RH  074%=      5-min Rain = 0
KARS 110825Z 18003KT 21/16 A3016 RMK A01 T02140160  RH  075%=      5-min Rain = 0
KARS 110830Z 18004KT 21/16 A3016 RMK A01 T02100158  RH  076%=      5-min Rain = 0
KARS 110835Z 17004KT 21/16 A3016 RMK A01 T02080158  RH  076%=      5-min Rain = 0
KARS 110840Z 17004KT 21/16 A3016 RMK A01 T02080159  RH  077%=      5-min Rain = 0
KARS 110845Z 18004KT 21/16 A3016 RMK A01 T02080159  RH  077%=      5-min Rain = 0
KARS 110850Z 18004KT 21/16 A3016 RMK A01 T02080160  RH  077%=      5-min Rain = 0
KARS 110855Z 18004KT 21/16 A3016 RMK A01 T02080159  RH  077%=      5-min Rain = 0
KARS 110900Z 18005KT 21/16 A3016 RMK A01 T02060159  RH  078%=      5-min Rain = 0
KARS 110905Z 18004KT 21/16 A3016 RMK A01 T02050159  RH  079%=      5-min Rain = 0
KARS 110910Z 17004KT 21/16 A3016 RMK A01 T02050160  RH  079%=      5-min Rain = 0
KARS 110915Z 18004KT 20/16 A3016 RMK A01 T02040160  RH  079%=      5-min Rain = 0
KARS 110920Z 17004KT 20/16 A3016 RMK A01 T02030159  RH  079%=      5-min Rain = 0
KARS 110925Z 17004KT 20/16 A3015 RMK A01 T02010158  RH  080%=      5-min Rain = 0
KARS 110930Z 17005KT 20/16 A3015 RMK A01 T02000158  RH  081%=      5-min Rain = 0
KARS 110935Z 17005KT 20/16 A3015 RMK A01 T02000159  RH  081%=      5-min Rain = 0
KARS 110940Z 17005KT 20/16 A3015 RMK A01 T02000159  RH  081%=      5-min Rain = 0
KARS 110945Z 17004KT 20/16 A3015 RMK A01 T02000158  RH  081%=      5-min Rain = 0
KARS 110950Z 17005KT 20/16 A3015 RMK A01 T01990158  RH  081%=      5-min Rain = 0
KARS 110955Z 17005KT 20/16 A3015 RMK A01 T01980158  RH  081%=      5-min Rain = 0
KARS 111000Z 18005KT 20/16 A3015 RMK A01 T01980158  RH  082%=      5-min Rain = 0
KARS 111005Z 18005KT 20/16 A3015 RMK A01 T01960158  RH  082%=      5-min Rain = 0
KARS 111010Z 18005KT 20/16 A3015 RMK A01 T01960159  RH  083%=      5-min Rain = 0
KARS 111015Z 18006KT 20/16 A3015 RMK A01 T01950159  RH  083%=      5-min Rain = 0
KARS 111020Z 18005KT 20/16 A3015 RMK A01 T01950160  RH  084%=      5-min Rain = 0
KARS 111025Z 18005KT 20/16 A3015 RMK A01 T01950159  RH  084%=      5-min Rain = 0
KARS 111030Z 19006KT 19/16 A3015 RMK A01 T01940159  RH  084%=      5-min Rain = 0
KARS 111035Z 19006KT 19/16 A3015 RMK A01 T01930159  RH  084%=      5-min Rain = 0
KARS 111040Z 19006KT 19/16 A3015 RMK A01 T01920159  RH  085%=      5-min Rain = 0
KARS 111045Z 19006KT 19/16 A3015 RMK A01 T01920160  RH  085%=      5-min Rain = 0
KARS 111050Z 18006KT 19/16 A3015 RMK A01 T01930160  RH  085%=      5-min Rain = 0
KARS 111055Z 18007KT 19/16 A3015 RMK A01 T01910160  RH  086%=      5-min Rain = 0
KARS 111100Z 18006KT 19/16 A3015 RMK A01 T01910160  RH  086%=      5-min Rain = 0
KARS 111105Z 18005KT 19/16 A3015 RMK A01 T01910160  RH  086%=      5-min Rain = 0
KARS 111110Z 18005KT 19/16 A3015 RMK A01 T01910161  RH  086%=      5-min Rain = 0
KARS 111115Z 18005KT 19/16 A3015 RMK A01 T01910161  RH  087%=      5-min Rain = 0
KARS 111120Z 18005KT 19/16 A3015 RMK A01 T01910160  RH  087%=      5-min Rain = 0
KARS 111125Z 17005KT 19/16 A3015 RMK A01 T01900160  RH  087%=      5-min Rain = 0
KARS 111130Z 16004KT 19/16 A3015 RMK A01 T01890160  RH  087%=      5-min Rain = 0
KARS 111135Z 18004KT 19/16 A3015 RMK A01 T01890159  RH  087%=      5-min Rain = 0
KARS 111140Z 18005KT 19/16 A3015 RMK A01 T01870158  RH  087%=      5-min Rain = 0
KARS 111145Z 18006KT 19/16 A3016 RMK A01 T01860157  RH  088%=      5-min Rain = 0
KARS 111150Z 18005KT 18/16 A3016 RMK A01 T01840157  RH  088%=      5-min Rain = 0
KARS 111155Z 18005KT 18/16 A3016 RMK A01 T01830156  RH  088%=      5-min Rain = 0
KARS 111200Z 18005KT 18/16 A3016 RMK A01 T01820156  RH  089%=      5-min Rain = 0
KARS 111205Z 18004KT 18/16 A3016 RMK A01 T01830157  RH  089%=      5-min Rain = 0
KARS 111210Z 19004KT 18/16 A3016 RMK A01 T01840158  RH  089%=      5-min Rain = 0
KARS 111215Z 19004KT 19/16 A3016 RMK A01 T01860160  RH  089%=      5-min Rain = 0
KARS 111220Z 19005KT 19/16 A3016 RMK A01 T01890162  RH  089%=      5-min Rain = 0
KARS 111225Z 19004KT 19/16 A3016 RMK A01 T01920164  RH  088%=      5-min Rain = 0
KARS 111230Z 19005KT 20/17 A3016 RMK A01 T01950166  RH  087%=      5-min Rain = 0
KARS 111235Z 19006KT 20/17 A3016 RMK A01 T02010166  RH  084%=      5-min Rain = 0
KARS 111240Z 19007KT 21/16 A3016 RMK A01 T02090163  RH  079%=      5-min Rain = 0
KARS 111245Z 19007KT 22/16 A3016 RMK A01 T02150160  RH  074%=      5-min Rain = 0
KARS 111250Z 19008KT 22/16 A3016 RMK A01 T02210157  RH  070%=      5-min Rain = 0
KARS 111255Z 19008KT 22/16 A3016 RMK A01 T02240156  RH  069%=      5-min Rain = 0
KARS 111300Z 19008KT 23/16 A3016 RMK A01 T02260155  RH  067%=      5-min Rain = 0
KARS 111305Z 19008KT 23/16 A3016 RMK A01 T02270155  RH  067%=      5-min Rain = 0
KARS 111310Z 19009G14KT 23/15 A3016 RMK A01 T02300154  RH  065%=      5-min Rain = 0
KARS 111315Z 19010KT 23/15 A3016 RMK A01 T02330153  RH  064%=      5-min Rain = 0
KARS 111320Z 19011KT 24/15 A3016 RMK A01 T02380154  RH  062%=      5-min Rain = 0
KARS 111325Z 19010KT 24/15 A3016 RMK A01 T02400154  RH  061%=      5-min Rain = 0
KARS 111330Z 19011KT 24/15 A3017 RMK A01 T02420154  RH  061%=      5-min Rain = 0
KARS 111335Z 19012KT 24/15 A3017 RMK A01 T02420154  RH  060%=      5-min Rain = 0
KARS 111340Z 20011G16KT 24/15 A3017 RMK A01 T02400154  RH  061%=      5-min Rain = 0
KARS 111345Z 19011KT 24/15 A3017 RMK A01 T02420153  RH  060%=      5-min Rain = 0
KARS 111350Z 20012KT 24/15 A3017 RMK A01 T02430153  RH  060%=      5-min Rain = 0
KARS 111355Z 20011KT 24/15 A3017 RMK A01 T02430153  RH  060%=      5-min Rain = 0
KARS 111400Z 20011KT 24/15 A3017 RMK A01 T02440154  RH  060%=      5-min Rain = 0
KARS 111405Z 20012KT 25/15 A3017 RMK A01 T02460153  RH  059%=      5-min Rain = 0
KARS 111410Z 19012KT 25/15 A3017 RMK A01 T02490154  RH  058%=      5-min Rain = 0
KARS 111415Z 19012KT 25/15 A3018 RMK A01 T02510153  RH  057%=      5-min Rain = 0
KARS 111420Z 19012KT 25/15 A3018 RMK A01 T02530153  RH  057%=      5-min Rain = 0
KARS 111425Z 19012KT 26/15 A3018 RMK A01 T02550154  RH  056%=      5-min Rain = 0
KARS 111430Z 19012KT 26/15 A3018 RMK A01 T02580154  RH  055%=      5-min Rain = 0
KARS 111435Z 20012KT 26/15 A3018 RMK A01 T02610154  RH  054%=      5-min Rain = 0
KARS 111440Z 21013KT 26/15 A3018 RMK A01 T02600154  RH  054%=      5-min Rain = 0
KARS 111445Z 20012KT 26/16 A3018 RMK A01 T02620155  RH  054%=      5-min Rain = 0
KARS 111450Z 20012KT 26/16 A3018 RMK A01 T02610155  RH  054%=      5-min Rain = 0
KARS 111455Z 21011KT 27/16 A3018 RMK A01 T02650155  RH  053%=      5-min Rain = 0
KARS 111500Z 20011KT 26/16 A3018 RMK A01 T02630155  RH  054%=      5-min Rain = 0
KARS 111505Z 20011KT 26/15 A3018 RMK A01 T02630154  RH  054%=      5-min Rain = 0
KARS 111510Z 20011G16KT 27/15 A3018 RMK A01 T02650153  RH  052%=      5-min Rain = 0
KARS 111515Z 21012KT 27/15 A3018 RMK A01 T02710151  RH  050%=      5-min Rain = 0
KARS 111520Z 20011KT 27/15 A3018 RMK A01 T02680151  RH  051%=      5-min Rain = 0
KARS 111525Z 21011KT 27/15 A3018 RMK A01 T02670150  RH  051%=      5-min Rain = 0
KARS 111530Z 20012KT 27/15 A3017 RMK A01 T02690151  RH  051%=      5-min Rain = 0
KARS 111535Z 19011G16KT 28/15 A3017 RMK A01 T02750152  RH  049%=      5-min Rain = 0
KARS 111540Z 20011KT 28/15 A3017 RMK A01 T02820152  RH  047%=      5-min Rain = 0
KARS 111545Z 19010G15KT 29/15 A3017 RMK A01 T02860152  RH  046%=      5-min Rain = 0
KARS 111550Z 19011KT 29/15 A3017 RMK A01 T02880151  RH  045%=      5-min Rain = 0
KARS 111555Z 19011G16KT 29/15 A3017 RMK A01 T02880149  RH  045%=      5-min Rain = 0
KARS 111600Z 19013KT 29/15 A3017 RMK A01 T02870146  RH  044%=      5-min Rain = 0
KARS 111605Z 20012KT 29/15 A3017 RMK A01 T02850145  RH  044%=      5-min Rain = 0
KARS 111610Z 20011G16KT 29/15 A3017 RMK A01 T02900145  RH  043%=      5-min Rain = 0
KARS 111615Z 18009G14KT 29/15 A3017 RMK A01 T02910148  RH  044%=      5-min Rain = 0
KARS 111620Z 19010KT 30/14 A3017 RMK A01 T02960142  RH  041%=      5-min Rain = 0
KARS 111625Z 19011KT 30/14 A3017 RMK A01 T02980142  RH  040%=      5-min Rain = 0
KARS 111630Z 19011G18KT 30/14 A3017 RMK A01 T02970137  RH  039%=      5-min Rain = 0
KARS 111635Z 20011G16KT 30/14 A3016 RMK A01 T02970143  RH  041%=      5-min Rain = 0
KARS 111640Z 18011G18KT 30/13 A3017 RMK A01 T02970134  RH  038%=      5-min Rain = 0
KARS 111645Z 19011G16KT 30/13 A3016 RMK A01 T02960134  RH  038%=      5-min Rain = 0
KARS 111650Z 20012G17KT 29/14 A3016 RMK A01 T02940138  RH  040%=      5-min Rain = 0
KARS 111655Z 20012G17KT 30/14 A3016 RMK A01 T02960139  RH  040%=      5-min Rain = 0
KARS 111700Z 20012G17KT 30/14 A3016 RMK A01 T02970142  RH  041%=      5-min Rain = 0
KARS 111705Z 19013G18KT 30/14 A3016 RMK A01 T02980135  RH  039%=      5-min Rain = 0
KARS 111710Z 19011G16KT 30/14 A3016 RMK A01 T02960140  RH  040%=      5-min Rain = 0
KARS 111715Z 18013G19KT 30/14 A3016 RMK A01 T02970142  RH  040%=      5-min Rain = 0
KARS 111720Z 17011G17KT 30/14 A3016 RMK A01 T03000138  RH  039%=      5-min Rain = 0
KARS 111725Z 16011G16KT 30/14 A3016 RMK A01 T03020143  RH  039%=      5-min Rain = 0
KARS 111730Z 16012G17KT 30/14 A3016 RMK A01 T03040142  RH  039%=      5-min Rain = 0
KARS 111735Z 16011G18KT 30/14 A3016 RMK A01 T03000139  RH  039%=      5-min Rain = 0
KARS 111740Z 17012G18KT 30/12 A3016 RMK A01 T03030123  RH  034%=      5-min Rain = 0
KARS 111745Z 16015G23KT 30/13 A3016 RMK A01 T03030132  RH  037%=      5-min Rain = 0
KARS 111750Z 17014G22KT 31/14 A3016 RMK A01 T03080137  RH  037%=      5-min Rain = 0
KARS 111755Z 15013KT 31/14 A3015 RMK A01 T03080139  RH  037%=      5-min Rain = 0
KARS 111800Z 16015G20KT 31/14 A3015 RMK A01 T03100143  RH  038%=      5-min Rain = 0
KARS 111805Z 15014G21KT 31/14 A3015 RMK A01 T03130139  RH  036%=      5-min Rain = 0
KARS 111810Z 19013G19KT 31/13 A3015 RMK A01 T03140131  RH  034%=      5-min Rain = 0
KARS 111815Z 18019G25KT 32/13 A3015 RMK A01 T03150133  RH  034%=      5-min Rain = 0
KARS 111820Z 19014G22KT 32/14 A3014 RMK A01 T03180135  RH  034%=      5-min Rain = 0
KARS 111825Z 18012G17KT 32/14 A3014 RMK A01 T03180136  RH  035%=      5-min Rain = 0
KARS 111830Z 17017G23KT 32/14 A3014 RMK A01 T03170139  RH  036%=      5-min Rain = 0
KARS 111835Z 17016KT 32/13 A3014 RMK A01 T03170134  RH  034%=      5-min Rain = 0
KARS 111840Z 19018G24KT 32/13 A3014 RMK A01 T03190130  RH  033%=      5-min Rain = 0
KARS 111845Z 19017G24KT 32/13 A3013 RMK A01 T03160132  RH  034%=      5-min Rain = 0
KARS 111850Z 18017G22KT 32/13 A3013 RMK A01 T03150132  RH  034%=      5-min Rain = 0
KARS 111855Z 18015G21KT 32/13 A3013 RMK A01 T03190132  RH  033%=      5-min Rain = 0
KARS 111900Z 16015KT 32/14 A3013 RMK A01 T03200136  RH  034%=      5-min Rain = 0
KARS 111905Z 16014G23KT 32/13 A3013 RMK A01 T03210134  RH  034%=      5-min Rain = 0
KARS 111910Z 16014G23KT 32/14 A3012 RMK A01 T03220135  RH  034%=      5-min Rain = 0
KARS 111915Z 16015G23KT 31/14 A3012 RMK A01 T03130136  RH  035%=      5-min Rain = 0
KARS 111920Z 17015G22KT 32/13 A3012 RMK A01 T03190133  RH  034%=      5-min Rain = 0
KARS 111925Z 17014G21KT 31/13 A3011 RMK A01 T03140134  RH  035%=      5-min Rain = 0
KARS 111930Z 18018G24KT 32/12 A3012 RMK A01 T03150124  RH  032%=      5-min Rain = 0
KARS 111935Z 18015G21KT 32/13 A3011 RMK A01 T03230130  RH  032%=      5-min Rain = 0
KARS 111940Z 19016G21KT 33/12 A3011 RMK A01 T03310124  RH  030%=      5-min Rain = 0
KARS 111945Z 17013G20KT 33/13 A3011 RMK A01 T03270128  RH  031%=      5-min Rain = 0
KARS 111950Z 16017G22KT 32/13 A301 RMK A01 T03240131  RH  032%=      5-min Rain = 0
KARS 111955Z 17017G23KT 32/13 A3011 RMK A01 T03230130  RH  032%=      5-min Rain = 0
KARS 112000Z 17015G21KT 32/13 A3011 RMK A01 T03220129  RH  032%=      5-min Rain = 0
KARS 112005Z 17015G20KT 32/13 A301 RMK A01 T03160126  RH  033%=      5-min Rain = 0
KARS 112010Z 17015G22KT 32/13 A301 RMK A01 T03220127  RH  032%=      5-min Rain = 0
KARS 112015Z 16016G22KT 33/13 A301 RMK A01 T03310129  RH  030%=      5-min Rain = 0
KARS 112020Z 16017G26KT 32/12 A301 RMK A01 T03210122  RH  031%=      5-min Rain = 0
KARS 112025Z 17017G23KT 32/12 A301 RMK A01 T03200121  RH  031%=      5-min Rain = 0
KARS 112030Z 18015G21KT 33/12 A3009 RMK A01 T03250120  RH  030%=      5-min Rain = 0
KARS 112035Z 20018G23KT 33/12 A3009 RMK A01 T03330119  RH  028%=      5-min Rain = 0
KARS 112040Z 17017G22KT 33/12 A3009 RMK A01 T03340118  RH  028%=      5-min Rain = 0
KARS 112045Z 18016G22KT 33/12 A3008 RMK A01 T03310119  RH  028%=      5-min Rain = 0
KARS 112050Z 19016G24KT 33/12 A3008 RMK A01 T03250119  RH  029%=      5-min Rain = 0
KARS 112055Z 17014G19KT 33/12 A3008 RMK A01 T03330120  RH  028%=      5-min Rain = 0
KARS 112100Z 17015G21KT 33/12 A3008 RMK A01 T03260120  RH  030%=      5-min Rain = 0
KARS 112105Z 18016G21KT 33/12 A3007 RMK A01 T03270118  RH  029%=      5-min Rain = 0
KARS 112110Z 18015G22KT 33/12 A3007 RMK A01 T03300115  RH  028%=      5-min Rain = 0
KARS 112115Z 18014G20KT 33/12 A3007 RMK A01 T03270115  RH  028%=      5-min Rain = 0
KARS 112120Z 16015G20KT 33/12 A3007 RMK A01 T03300120  RH  029%=      5-min Rain = 0
KARS 112125Z 18015G22KT 33/11 A3006 RMK A01 T03320112  RH  027%=      5-min Rain = 0
KARS 112130Z 19016G24KT 33/11 A3006 RMK A01 T03320110  RH  027%=      5-min Rain = 0
KARS 112135Z 17016G21KT 34/11 A3006 RMK A01 T03360113  RH  027%=      5-min Rain = 0
KARS 112140Z 18016G23KT 33/11 A3006 RMK A01 T03320110  RH  027%=      5-min Rain = 0
KARS 112145Z 17016G21KT 33/11 A3006 RMK A01 T03310113  RH  027%=      5-min Rain = 0
KARS 112150Z 16017G25KT 33/11 A3005 RMK A01 T03280114  RH  028%=      5-min Rain = 0
KARS 112155Z 16014G19KT 33/12 A3005 RMK A01 T03270115  RH  029%=      5-min Rain = 0
KARS 112200Z 17016G22KT 33/11 A3005 RMK A01 T03260114  RH  028%=      5-min Rain = 0
KARS 112205Z 18015KT 33/12 A3005 RMK A01 T03250116  RH  029%=      5-min Rain = 0
KARS 112210Z 18014KT 33/12 A3005 RMK A01 T03300117  RH  028%=      5-min Rain = 0
KARS 112215Z 18014G19KT 33/12 A3005 RMK A01 T03290117  RH  029%=      5-min Rain = 0
KARS 112220Z 17015KT 33/12 A3005 RMK A01 T03290123  RH  030%=      5-min Rain = 0
KARS 112225Z 18013G19KT 33/12 A3005 RMK A01 T03330123  RH  029%=      5-min Rain = 0
KARS 112230Z 16014KT 34/13 A3004 RMK A01 T03380127  RH  029%=      5-min Rain = 0
KARS 112235Z 16015KT 34/13 A3005 RMK A01 T03350125  RH  029%=      5-min Rain = 0
KARS 112240Z 16011G21KT 34/13 A3004 RMK A01 T03360126  RH  029%=      5-min Rain = 0
KARS 112245Z 18015G22KT 33/12 A3005 RMK A01 T03310118  RH  028%=      5-min Rain = 0
KARS 112250Z 17015G22KT 33/12 A3005 RMK A01 T03330116  RH  028%=      5-min Rain = 0
KARS 112255Z 17013KT 33/12 A3004 RMK A01 T03310118  RH  028%=      5-min Rain = 0
KARS 112300Z 19015G25KT 33/12 A3004 RMK A01 T03310118  RH  028%=      5-min Rain = 0
KARS 112305Z 18013KT 33/12 A3004 RMK A01 T03310120  RH  029%=      5-min Rain = 0
KARS 112310Z 18011KT 33/12 A3004 RMK A01 T03280120  RH  029%=      5-min Rain = 0
KARS 112315Z 17014KT 33/12 A3004 RMK A01 T03300124  RH  030%=      5-min Rain = 0
KARS 112320Z 16016G21KT 32/12 A3004 RMK A01 T03240122  RH  030%=      5-min Rain = 0
KARS 112325Z 16014KT 32/12 A3004 RMK A01 T03230123  RH  031%=      5-min Rain = 0
KARS 112330Z 16013G20KT 32/12 A3004 RMK A01 T03240124  RH  031%=      5-min Rain = 0
KARS 112335Z 17015G20KT 32/12 A3004 RMK A01 T03230120  RH  030%=      5-min Rain = 0
KARS 112340Z 16015KT 32/12 A3004 RMK A01 T03200120  RH  031%=      5-min Rain = 0
KARS 112345Z 16015G21KT 32/12 A3004 RMK A01 T03180119  RH  031%=      5-min Rain = 0
KARS 112350Z 16015G21KT 32/12 A3004 RMK A01 T03170120  RH  031%=      5-min Rain = 0
KARS 112355Z 16015G21KT 32/12 A3004 RMK A01 T03180119  RH  031%=      5-min Rain = 0
KARS 120000Z 18015G20KT 32/12 A3004 RMK A01 T03180117  RH  030%=      5-min Rain = 0
KARS 120005Z 17014KT 32/12 A3004 RMK A01 T03170117  RH  031%=      5-min Rain = 0
KARS 120010Z 17013KT 32/12 A3004 RMK A01 T03160118  RH  031%=      5-min Rain = 0
KARS 120015Z 17014G20KT 32/12 A3004 RMK A01 T03150117  RH  031%=      5-min Rain = 0
KARS 120020Z 17014KT 31/12 A3004 RMK A01 T03140116  RH  031%=      5-min Rain = 0
KARS 120025Z 17012KT 31/12 A3004 RMK A01 T03140116  RH  031%=      5-min Rain = 0
KARS 120030Z 16012KT 31/12 A3004 RMK A01 T03130117  RH  031%=      5-min Rain = 0
KARS 120035Z 17013KT 31/12 A3005 RMK A01 T03130116  RH  031%=      5-min Rain = 0
KARS 120040Z 17012KT 31/12 A3005 RMK A01 T03130116  RH  031%=      5-min Rain = 0
KARS 120045Z 17011KT 31/12 A3004 RMK A01 T03130115  RH  031%=      5-min Rain = 0
KARS 120050Z 17011G16KT 31/12 A3004 RMK A01 T03130115  RH  031%=      5-min Rain = 0
KARS 120055Z 17011KT 31/12 A3005 RMK A01 T03130118  RH  031%=      5-min Rain = 0
KARS 120100Z 17010KT 31/12 A3005 RMK A01 T03120120  RH  032%=      5-min Rain = 0
KARS 120105Z 18011KT 31/12 A3005 RMK A01 T03120121  RH  032%=      5-min Rain = 0
KARS 120110Z 18011KT 31/12 A3005 RMK A01 T03110121  RH  032%=      5-min Rain = 0
KARS 120115Z 18011KT 31/12 A3005 RMK A01 T03090120  RH  032%=      5-min Rain = 0
KARS 120120Z 18010KT 31/12 A3005 RMK A01 T03080119  RH  033%=      5-min Rain = 0
KARS 120125Z 18010KT 31/12 A3005 RMK A01 T03070119  RH  033%=      5-min Rain = 0
KARS 120130Z 18010KT 31/12 A3005 RMK A01 T03050120  RH  033%=      5-min Rain = 0
KARS 120135Z 18010KT 30/12 A3005 RMK A01 T03030120  RH  034%=      5-min Rain = 0
KARS 120140Z 18012KT 30/12 A3006 RMK A01 T03030120  RH  034%=      5-min Rain = 0
KARS 120145Z 18010KT 30/12 A3006 RMK A01 T03010124  RH  035%=      5-min Rain = 0
KARS 120150Z 18010KT 30/13 A3006 RMK A01 T02980129  RH  037%=      5-min Rain = 0
KARS 120155Z 18009KT 30/13 A3006 RMK A01 T02950131  RH  038%=      5-min Rain = 0
KARS 120200Z 17009KT 29/13 A3006 RMK A01 T02930132  RH  039%=      5-min Rain = 0
KARS 120205Z 16008KT 29/14 A3006 RMK A01 T02890135  RH  040%=      5-min Rain = 0
KARS 120210Z 16007KT 29/14 A3006 RMK A01 T02860137  RH  042%=      5-min Rain = 0
KARS 120215Z 17007KT 29/14 A3006 RMK A01 T02850135  RH  041%=      5-min Rain = 0
KARS 120220Z 16007KT 29/14 A3006 RMK A01 T02850135  RH  041%=      5-min Rain = 0
KARS 120225Z 16007KT 29/13 A3006 RMK A01 T02860134  RH  041%=      5-min Rain = 0
KARS 120230Z 16008KT 29/14 A3007 RMK A01 T02860135  RH  041%=      5-min Rain = 0
KARS 120235Z 16008KT 29/14 A3007 RMK A01 T02860139  RH  042%=      5-min Rain = 0
KARS 120240Z 15007KT 28/14 A3007 RMK A01 T02830142  RH  044%=      5-min Rain = 0
KARS 120245Z 15008KT 28/14 A3008 RMK A01 T02830138  RH  043%=      5-min Rain = 0
KARS 120250Z 16007KT 29/14 A3008 RMK A01 T02850137  RH  042%=      5-min Rain = 0
KARS 120255Z 15008KT 29/14 A3008 RMK A01 T02850136  RH  042%=      5-min Rain = 0
KARS 120300Z 15008KT 29/14 A3008 RMK A01 T02850137  RH  042%=      5-min Rain = 0
KARS 120305Z 15008KT 28/14 A3008 RMK A01 T02840137  RH  042%=      5-min Rain = 0
KARS 120310Z 15008KT 28/14 A3009 RMK A01 T02830137  RH  042%=      5-min Rain = 0
KARS 120315Z 15007KT 28/14 A3009 RMK A01 T02810138  RH  043%=      5-min Rain = 0
KARS 120320Z 15007KT 28/14 A3009 RMK A01 T02800139  RH  044%=      5-min Rain = 0
KARS 120325Z 15006KT 28/14 A3009 RMK A01 T02780140  RH  045%=      5-min Rain = 0
KARS 120330Z 15007KT 28/14 A301 RMK A01 T02770141  RH  045%=      5-min Rain = 0
KARS 120335Z 15007KT 28/14 A301 RMK A01 T02760141  RH  046%=      5-min Rain = 0
KARS 120340Z 15006KT 28/14 A301 RMK A01 T02750142  RH  046%=      5-min Rain = 0
KARS 120345Z 15007KT 27/14 A301 RMK A01 T02740143  RH  046%=      5-min Rain = 0
KARS 120350Z 15007KT 27/14 A301 RMK A01 T02730143  RH  047%=      5-min Rain = 0
KARS 120355Z 16008G13KT 27/14 A301 RMK A01 T02720143  RH  047%=      5-min Rain = 0
KARS 120400Z 16011KT 28/14 A3011 RMK A01 T02750139  RH  045%=      5-min Rain = 0
KARS 120405Z 17013KT 28/14 A3011 RMK A01 T02790137  RH  043%=      5-min Rain = 0
KARS 120410Z 17018G26KT 28/14 A3011 RMK A01 T02800139  RH  044%=      5-min Rain = 0
KARS 120415Z 17020G25KT 28/14 A3012 RMK A01 T02770144  RH  046%=      5-min Rain = 0
KARS 120420Z 17019KT 27/15 A3012 RMK A01 T02730146  RH  048%=      5-min Rain = 0
KARS 120425Z 16017G22KT 27/15 A3012 RMK A01 T02690149  RH  050%=      5-min Rain = 0
KARS 120430Z 16019G24KT 26/15 A3012 RMK A01 T02640152  RH  052%=      5-min Rain = 0
KARS 120435Z 17013G19KT 26/15 A3012 RMK A01 T02620152  RH  053%=      5-min Rain = 0
KARS 120440Z 16015G21KT 27/15 A3012 RMK A01 T02650149  RH  051%=      5-min Rain = 0
KARS 120445Z 16012KT 27/15 A3012 RMK A01 T02670151  RH  051%=      5-min Rain = 0
KARS 120450Z 16013KT 26/15 A3012 RMK A01 T02640153  RH  053%=      5-min Rain = 0
KARS 120455Z 15014G19KT 27/15 A3012 RMK A01 T02650152  RH  052%=      5-min Rain = 0
KARS 120500Z 15014KT 27/15 A3012 RMK A01 T02650151  RH  052%=      5-min Rain = 0

Page generated in 0.0273 seconds.